createdAt,value
2019-03-26T00:00:58.392Z,0.00
2019-03-26T00:01:58.391Z,0.00
2019-03-26T00:02:58.358Z,0.00
2019-03-26T00:04:05.891Z,0.00
2019-03-26T00:04:59.342Z,0.00
2019-03-26T00:05:58.333Z,0.00
2019-03-26T00:06:58.320Z,0.00
2019-03-26T00:07:58.326Z,0.00
2019-03-26T00:08:58.298Z,0.00
2019-03-26T00:09:58.289Z,0.00
2019-03-26T00:10:58.282Z,0.00
2019-03-26T00:11:58.273Z,0.00
2019-03-26T00:12:58.264Z,0.00
2019-03-26T00:14:05.795Z,0.00
2019-03-26T00:15:05.301Z,0.00
2019-03-26T00:16:05.763Z,0.00
2019-03-26T00:17:06.265Z,0.00
2019-03-26T00:18:05.271Z,0.00
2019-03-26T00:19:05.736Z,0.00
2019-03-26T00:20:05.712Z,0.00
2019-03-26T00:20:58.171Z,0.00
2019-03-26T00:21:58.165Z,0.00
2019-03-26T00:22:58.157Z,0.00
2019-03-26T00:23:58.154Z,0.00
2019-03-26T00:24:58.128Z,0.00
2019-03-26T00:25:58.118Z,0.00
2019-03-26T00:26:58.109Z,0.00
2019-03-26T00:27:58.112Z,0.00
2019-03-26T00:28:58.114Z,0.00
2019-03-26T00:29:58.085Z,0.00
2019-03-26T05:00:45.284Z,0.00
2019-03-26T05:01:45.251Z,0.00
2019-03-26T05:02:45.240Z,4.00
2019-03-26T05:03:45.231Z,4.00
2019-03-26T05:04:45.223Z,4.00
2019-03-26T05:05:45.219Z,4.00
2019-03-26T05:06:45.248Z,4.00
2019-03-26T05:07:45.189Z,4.00
2019-03-26T05:08:45.180Z,8.00
2019-03-26T05:09:52.723Z,8.00
2019-03-26T05:10:52.690Z,8.00
2019-03-26T05:11:52.751Z,12.00
2019-03-26T05:12:45.145Z,12.00
2019-03-26T05:13:45.131Z,16.00
2019-03-26T05:14:45.118Z,16.00
2019-03-26T05:15:45.107Z,16.00
2019-03-26T05:16:45.116Z,20.00
2019-03-26T05:17:45.109Z,20.00
2019-03-26T05:18:45.075Z,24.00
2019-03-26T05:19:45.076Z,24.00
2019-03-26T05:20:45.054Z,32.00
2019-03-26T05:21:45.054Z,40.00
2019-03-26T05:22:45.056Z,40.00
2019-03-26T05:23:45.047Z,52.00
2019-03-26T05:24:45.018Z,56.00
2019-03-26T05:25:45.007Z,64.00
2019-03-26T05:26:44.994Z,68.00
2019-03-26T05:27:45.881Z,76.00
2019-03-26T05:28:44.973Z,76.00
2019-03-26T05:29:44.980Z,80.00
2019-03-26T05:30:45.671Z,84.00
2019-03-26T05:31:45.220Z,84.00
2019-03-26T05:32:44.926Z,88.00
2019-03-26T05:33:44.938Z,92.00
2019-03-26T05:34:44.908Z,96.00
2019-03-26T05:35:44.901Z,100.00
2019-03-26T05:36:51.163Z,116.00
2019-03-26T05:37:46.652Z,132.00
2019-03-26T05:38:44.865Z,144.00
2019-03-26T05:39:44.868Z,152.00
2019-03-26T05:40:44.839Z,156.00
2019-03-26T05:41:44.845Z,168.00
2019-03-26T05:42:44.915Z,184.00
2019-03-26T05:43:45.136Z,208.00
2019-03-26T05:44:45.475Z,228.00
2019-03-26T05:45:44.793Z,252.00
2019-03-26T05:46:44.780Z,268.00
2019-03-26T05:47:44.765Z,288.00
2019-03-26T05:48:44.760Z,288.00
2019-03-26T05:49:44.767Z,304.00
2019-03-26T05:50:44.739Z,328.00
2019-03-26T05:51:44.723Z,344.00
2019-03-26T05:52:44.731Z,364.00
2019-03-26T05:53:44.719Z,372.00
2019-03-26T05:54:44.713Z,380.00
2019-03-26T05:55:45.192Z,404.00
2019-03-26T05:56:44.680Z,432.00
2019-03-26T05:57:44.785Z,436.00
2019-03-26T05:58:44.668Z,436.00
2019-03-26T05:59:44.653Z,448.00
2019-03-26T06:00:44.647Z,436.00
2019-03-26T06:01:44.616Z,392.00
2019-03-26T06:02:44.636Z,356.00
2019-03-26T06:03:44.641Z,328.00
2019-03-26T06:04:45.139Z,300.00
2019-03-26T06:05:44.574Z,284.00
2019-03-26T06:06:45.141Z,264.00
2019-03-26T06:07:44.560Z,268.00
2019-03-26T06:08:45.961Z,268.00
2019-03-26T06:09:45.439Z,272.00
2019-03-26T06:10:45.151Z,280.00
2019-03-26T06:11:44.520Z,292.00
2019-03-26T06:12:53.353Z,304.00
2019-03-26T06:13:45.855Z,332.00
2019-03-26T06:14:44.497Z,368.00
2019-03-26T06:15:45.180Z,424.00
2019-03-26T06:16:44.468Z,464.00
2019-03-26T06:17:44.572Z,476.00
2019-03-26T06:18:44.446Z,508.00
2019-03-26T06:19:44.441Z,524.00
2019-03-26T06:20:44.530Z,512.00
2019-03-26T06:21:44.465Z,540.00
2019-03-26T06:22:44.395Z,552.00
2019-03-26T06:23:44.429Z,568.00
2019-03-26T06:24:44.386Z,596.00
2019-03-26T06:25:44.603Z,596.00
2019-03-26T06:26:44.495Z,592.00
2019-03-26T06:27:44.376Z,608.00
2019-03-26T06:28:44.350Z,644.00
2019-03-26T06:29:44.404Z,692.00
2019-03-26T06:30:44.327Z,756.00
2019-03-26T06:31:44.292Z,820.00
2019-03-26T06:32:44.357Z,872.00
2019-03-26T06:34:45.281Z,976.00
2019-03-26T06:35:50.696Z,1028.00
2019-03-26T06:36:45.246Z,1076.00
2019-03-26T06:37:44.242Z,1108.00
2019-03-26T06:38:59.290Z,1116.00
2019-03-26T06:44:56.068Z,1140.00
2019-03-26T06:59:15.612Z,2060.00
2019-03-26T07:00:15.592Z,2056.00
2019-03-26T07:01:15.577Z,2040.00
2019-03-26T07:02:15.569Z,2060.00
2019-03-26T07:03:15.581Z,2096.00
2019-03-26T07:04:15.549Z,2104.00
2019-03-26T07:05:15.537Z,2024.00
2019-03-26T07:06:15.529Z,1880.00
2019-03-26T07:07:15.531Z,1720.00
2019-03-26T07:08:15.532Z,1712.00
2019-03-26T07:09:15.492Z,1720.00
2019-03-26T07:10:15.498Z,1680.00
2019-03-26T07:11:15.487Z,1692.00
2019-03-26T07:12:15.473Z,1768.00
2019-03-26T07:13:15.470Z,1868.00
2019-03-26T07:14:15.434Z,1980.00
2019-03-26T07:15:15.424Z,2048.00
2019-03-26T07:16:15.415Z,2076.00
2019-03-26T07:17:15.423Z,2104.00
2019-03-26T07:18:15.394Z,2132.00
2019-03-26T07:19:15.400Z,2112.00
2019-03-26T07:20:15.372Z,2128.00
2019-03-26T07:21:15.361Z,2192.00
2019-03-26T07:22:15.355Z,2336.00
2019-03-26T07:23:15.356Z,2532.00
2019-03-26T07:24:15.349Z,2792.00
2019-03-26T07:25:15.317Z,3024.00
2019-03-26T07:26:22.837Z,3192.00
2019-03-26T07:27:22.835Z,3220.00
2019-03-26T07:28:22.897Z,3148.00
2019-03-26T07:29:22.846Z,2948.00
2019-03-26T07:30:22.810Z,2712.00
2019-03-26T07:31:15.251Z,2644.00
2019-03-26T07:32:15.246Z,2460.00
2019-03-26T07:33:15.230Z,2356.00
2019-03-26T07:34:15.221Z,2308.00
2019-03-26T07:35:15.224Z,2296.00
2019-03-26T07:36:15.202Z,2280.00
2019-03-26T07:37:15.188Z,2276.00
2019-03-26T07:38:15.177Z,2312.00
2019-03-26T07:39:15.195Z,2352.00
2019-03-26T07:40:15.156Z,2396.00
2019-03-26T07:41:15.144Z,2476.00
2019-03-26T07:42:15.142Z,2580.00
2019-03-26T07:43:15.125Z,2668.00
2019-03-26T07:44:15.105Z,2720.00
2019-03-26T07:45:15.132Z,2752.00
2019-03-26T07:46:15.108Z,2808.00
2019-03-26T07:47:15.095Z,2872.00
2019-03-26T07:48:15.064Z,3044.00
2019-03-26T07:49:15.052Z,3300.00
2019-03-26T07:50:15.058Z,3440.00
2019-03-26T08:09:31.833Z,6452.00
2019-03-26T08:16:49.277Z,7144.00
2019-03-26T08:17:49.222Z,7572.00
2019-03-26T08:18:49.210Z,7628.00
2019-03-26T08:19:49.206Z,7340.00
2019-03-26T08:20:49.187Z,7008.00
2019-03-26T08:21:49.179Z,6716.00
2019-03-26T08:22:49.186Z,6376.00
2019-03-26T08:23:49.159Z,5880.00
2019-03-26T08:24:49.159Z,5256.00
2019-03-26T08:25:49.154Z,4824.00
2019-03-26T08:26:51.921Z,4516.00
2019-03-26T08:27:49.122Z,4328.00
2019-03-26T08:28:49.101Z,4124.00
2019-03-26T08:29:49.107Z,3784.00
2019-03-26T08:30:50.310Z,3432.00
2019-03-26T08:31:49.078Z,3268.00
2019-03-26T08:32:49.077Z,3252.00
2019-03-26T08:33:49.048Z,3264.00
2019-03-26T08:34:49.042Z,3224.00
2019-03-26T08:35:49.035Z,3232.00
2019-03-26T08:36:49.021Z,3212.00
2019-03-26T08:37:49.029Z,3216.00
2019-03-26T08:38:48.993Z,3340.00
2019-03-26T08:39:48.986Z,3576.00
2019-03-26T08:40:48.976Z,3972.00
2019-03-26T08:41:48.964Z,4404.00
2019-03-26T08:42:48.960Z,4716.00
2019-03-26T08:43:48.966Z,4932.00
2019-03-26T08:44:48.934Z,5280.00
2019-03-26T08:45:48.929Z,5524.00
2019-03-26T08:46:48.914Z,5324.00
2019-03-26T08:47:48.901Z,4760.00
2019-03-26T08:48:48.906Z,4296.00
2019-03-26T08:49:48.904Z,4056.00
2019-03-26T08:50:48.866Z,3940.00
2019-03-26T08:51:48.869Z,3996.00
2019-03-26T08:52:48.847Z,4296.00
2019-03-26T08:53:48.835Z,4564.00
2019-03-26T08:54:48.891Z,4692.00
2019-03-26T08:55:48.815Z,4728.00
2019-03-26T08:56:48.805Z,4728.00
2019-03-26T08:57:48.804Z,4796.00
2019-03-26T08:58:48.781Z,4972.00
2019-03-26T08:59:48.786Z,5256.00
2019-03-26T09:00:48.767Z,5532.00
2019-03-26T09:01:48.764Z,5944.00
2019-03-26T09:02:48.752Z,6284.00
2019-03-26T09:03:48.731Z,6300.00
2019-03-26T09:04:48.721Z,6092.00
2019-03-26T09:05:48.710Z,5816.00
2019-03-26T09:06:48.737Z,5784.00
2019-03-26T09:07:48.706Z,5948.00
2019-03-26T09:08:48.682Z,6004.00
2019-03-26T09:09:48.671Z,6000.00
2019-03-26T09:10:51.908Z,6116.00
2019-03-26T09:11:48.666Z,6476.00
2019-03-26T09:12:48.637Z,6864.00
2019-03-26T09:13:48.625Z,7040.00
2019-03-26T09:14:48.622Z,6900.00
2019-03-26T09:15:48.612Z,6840.00
2019-03-26T09:16:48.594Z,6912.00
2019-03-26T09:17:48.605Z,7100.00
2019-03-26T09:18:48.572Z,7492.00
2019-03-26T09:19:48.559Z,8240.00
2019-03-26T09:20:48.555Z,7600.00
2019-03-26T09:21:48.539Z,7384.00
2019-03-26T09:22:48.526Z,7240.00
2019-03-26T09:23:48.529Z,7116.00
2019-03-26T09:24:48.504Z,7100.00
2019-03-26T09:25:48.493Z,7152.00
2019-03-26T09:26:48.500Z,7280.00
2019-03-26T09:27:48.498Z,7368.00
2019-03-26T09:28:48.464Z,7360.00
2019-03-26T09:29:48.454Z,9000.00
2019-03-26T09:30:48.440Z,7312.00
2019-03-26T09:31:48.429Z,7544.00
2019-03-26T09:32:48.420Z,8112.00
2019-03-26T09:33:48.431Z,10712.00
2019-03-26T09:34:48.406Z,11508.00
2019-03-26T09:35:48.388Z,11724.00
2019-03-26T09:36:48.378Z,13692.00
2019-03-26T09:37:48.371Z,14584.00
2019-03-26T09:38:48.374Z,15296.00
2019-03-26T09:39:48.352Z,13628.00
2019-03-26T09:40:48.333Z,12936.00
2019-03-26T09:41:48.335Z,12336.00
2019-03-26T09:42:48.307Z,11816.00
2019-03-26T09:43:48.322Z,11576.00
2019-03-26T09:44:48.287Z,11240.00
2019-03-26T09:45:48.278Z,10968.00
2019-03-26T09:46:55.802Z,10876.00
2019-03-26T09:47:55.794Z,11084.00
2019-03-26T09:48:55.791Z,11168.00
2019-03-26T09:49:55.781Z,9544.00
2019-03-26T09:50:55.757Z,8600.00
2019-03-26T09:51:48.218Z,7524.00
2019-03-26T09:52:48.199Z,6272.00
2019-03-26T09:53:48.189Z,4924.00
2019-03-26T09:54:48.196Z,3864.00
2019-03-26T09:55:48.189Z,3240.00
2019-03-26T09:56:48.165Z,2872.00
2019-03-26T09:57:48.151Z,2580.00
2019-03-26T09:58:48.142Z,2324.00
2019-03-26T09:59:48.126Z,2124.00
2019-03-26T10:00:48.275Z,2040.00
2019-03-26T10:01:48.128Z,2068.00
2019-03-26T10:02:48.099Z,2156.00
2019-03-26T10:03:48.089Z,2180.00
2019-03-26T10:04:48.089Z,2164.00
2019-03-26T10:05:48.060Z,2208.00
2019-03-26T10:06:48.050Z,2364.00
2019-03-26T10:07:48.041Z,2692.00
2019-03-26T10:08:52.636Z,3176.00
2019-03-26T10:09:48.017Z,3844.00
2019-03-26T10:10:48.029Z,4484.00
2019-03-26T10:11:48.001Z,5004.00
2019-03-26T10:12:47.988Z,5320.00
2019-03-26T10:13:47.979Z,5512.00
2019-03-26T10:14:47.964Z,5604.00
2019-03-26T10:15:47.975Z,5672.00
2019-03-26T10:16:47.940Z,5780.00
2019-03-26T10:17:47.935Z,5944.00
2019-03-26T10:18:47.920Z,6100.00
2019-03-26T10:19:47.935Z,6124.00
2019-03-26T10:20:47.927Z,5920.00
2019-03-26T10:21:47.902Z,5500.00
2019-03-26T10:22:47.879Z,4852.00
2019-03-26T10:23:47.871Z,4196.00
2019-03-26T10:24:47.850Z,3636.00
2019-03-26T10:25:47.844Z,3160.00
2019-03-26T10:26:47.851Z,2760.00
2019-03-26T10:27:47.822Z,2480.00
2019-03-26T10:28:47.819Z,2304.00
2019-03-26T10:29:47.822Z,2188.00
2019-03-26T10:30:47.790Z,2124.00
2019-03-26T10:31:47.774Z,2104.00
2019-03-26T10:32:47.770Z,2080.00
2019-03-26T10:33:47.761Z,2064.00
2019-03-26T10:34:47.749Z,2100.00
2019-03-26T10:35:47.763Z,2176.00
2019-03-26T10:36:47.723Z,2292.00
2019-03-26T10:37:47.712Z,2500.00
2019-03-26T10:38:47.701Z,2764.00
2019-03-26T10:39:47.689Z,2956.00
2019-03-26T10:40:47.699Z,3020.00
2019-03-26T10:41:47.673Z,2988.00
2019-03-26T10:42:47.672Z,2984.00
2019-03-26T10:43:47.657Z,3040.00
2019-03-26T10:44:47.640Z,3140.00
2019-03-26T10:45:47.649Z,3296.00
2019-03-26T10:46:47.632Z,3448.00
2019-03-26T10:47:47.608Z,3516.00
2019-03-26T10:48:47.592Z,3404.00
2019-03-26T10:49:47.587Z,3208.00
2019-03-26T10:50:47.603Z,3008.00
2019-03-26T10:51:47.560Z,2848.00
2019-03-26T10:52:47.557Z,2692.00
2019-03-26T10:53:47.545Z,2528.00
2019-03-26T10:54:47.539Z,2372.00
2019-03-26T10:55:47.524Z,2276.00
2019-03-26T10:56:47.533Z,2284.00
2019-03-26T10:57:47.498Z,2320.00
2019-03-26T10:58:47.488Z,2324.00
2019-03-26T10:59:47.477Z,2292.00
2019-03-26T11:00:47.483Z,2260.00
2019-03-26T11:01:47.459Z,2240.00
2019-03-26T11:02:47.508Z,2244.00
2019-03-26T11:03:47.437Z,2264.00
2019-03-26T11:04:47.429Z,2292.00
2019-03-26T11:05:47.444Z,2272.00
2019-03-26T11:06:47.410Z,2256.00
2019-03-26T11:07:47.420Z,2252.00
2019-03-26T11:08:47.410Z,2292.00
2019-03-26T11:09:47.368Z,2372.00
2019-03-26T11:10:47.365Z,2508.00
2019-03-26T11:11:47.346Z,2708.00
2019-03-26T11:12:47.347Z,2880.00
2019-03-26T11:13:47.344Z,2992.00
2019-03-26T11:14:47.322Z,3020.00
2019-03-26T11:15:47.310Z,3020.00
2019-03-26T11:16:47.308Z,3036.00
2019-03-26T11:17:47.309Z,3072.00
2019-03-26T11:18:47.277Z,3152.00
2019-03-26T11:19:47.266Z,3272.00
2019-03-26T11:20:47.250Z,3412.00
2019-03-26T11:21:47.242Z,3520.00
2019-03-26T11:22:47.247Z,3612.00
2019-03-26T11:23:47.236Z,3700.00
2019-03-26T11:24:47.217Z,3824.00
2019-03-26T11:25:47.200Z,4028.00
2019-03-26T11:26:47.188Z,4308.00
2019-03-26T11:27:47.181Z,4520.00
2019-03-26T11:28:47.167Z,4640.00
2019-03-26T11:29:47.170Z,4748.00
2019-03-26T11:30:47.150Z,5016.00
2019-03-26T11:31:47.132Z,5740.00
2019-03-26T11:32:47.127Z,6824.00
2019-03-26T11:33:47.132Z,7808.00
2019-03-26T11:34:47.118Z,8308.00
2019-03-26T11:35:47.105Z,8856.00
2019-03-26T11:36:47.090Z,9560.00
2019-03-26T11:37:47.075Z,9956.00
2019-03-26T11:38:47.060Z,10268.00
2019-03-26T11:39:47.076Z,10480.00
2019-03-26T11:40:47.039Z,10360.00
2019-03-26T11:41:47.030Z,10092.00
2019-03-26T11:42:47.068Z,9776.00
2019-03-26T11:43:47.005Z,9696.00
2019-03-26T11:44:47.006Z,9804.00
2019-03-26T11:45:47.014Z,10008.00
2019-03-26T11:46:46.981Z,10280.00
2019-03-26T11:47:46.971Z,10444.00
2019-03-26T11:48:46.948Z,10400.00
2019-03-26T11:49:46.947Z,10240.00
2019-03-26T11:50:46.949Z,10036.00
2019-03-26T11:51:46.925Z,9976.00
2019-03-26T11:52:46.913Z,9860.00
2019-03-26T11:53:46.895Z,9772.00
2019-03-26T11:54:46.889Z,9680.00
2019-03-26T11:55:46.893Z,9656.00
2019-03-26T11:56:46.867Z,9696.00
2019-03-26T11:57:46.854Z,9768.00
2019-03-26T11:58:46.842Z,9860.00
2019-03-26T11:59:46.839Z,10008.00
2019-03-26T12:00:46.822Z,10164.00
2019-03-26T12:01:46.824Z,10320.00
2019-03-26T12:02:46.798Z,10408.00
2019-03-26T12:03:54.329Z,10380.00
2019-03-26T12:04:46.783Z,10244.00
2019-03-26T12:05:46.773Z,10072.00
2019-03-26T12:06:46.784Z,9788.00
2019-03-26T12:07:46.753Z,9300.00
2019-03-26T12:08:46.754Z,8692.00
2019-03-26T12:09:47.032Z,7924.00
2019-03-26T12:10:46.719Z,7432.00
2019-03-26T12:11:46.703Z,7136.00
2019-03-26T12:12:46.712Z,6956.00
2019-03-26T12:13:46.683Z,6840.00
2019-03-26T12:14:46.678Z,6944.00
2019-03-26T12:15:47.009Z,7320.00
2019-03-26T12:16:46.747Z,7736.00
2019-03-26T12:17:46.665Z,7896.00
2019-03-26T12:18:46.629Z,8100.00
2019-03-26T12:19:46.626Z,8708.00
2019-03-26T12:20:46.617Z,9096.00
2019-03-26T12:21:46.605Z,9172.00
2019-03-26T12:22:46.615Z,9076.00
2019-03-26T12:23:46.581Z,9044.00
2019-03-26T12:24:46.580Z,9168.00
2019-03-26T12:25:46.695Z,9496.00
2019-03-26T12:26:47.476Z,9872.00
2019-03-26T12:27:46.546Z,10204.00
2019-03-26T12:28:46.543Z,10300.00
2019-03-26T12:29:46.519Z,10096.00
2019-03-26T12:30:46.511Z,9524.00
2019-03-26T12:31:46.495Z,8540.00
2019-03-26T12:32:46.509Z,7584.00
2019-03-26T12:33:46.481Z,6968.00
2019-03-26T12:34:46.492Z,6600.00
2019-03-26T12:35:46.460Z,6164.00
2019-03-26T12:36:46.442Z,5580.00
2019-03-26T12:37:46.464Z,5028.00
2019-03-26T12:38:46.420Z,4472.00
2019-03-26T12:39:58.968Z,3908.00
2019-03-26T12:40:47.398Z,3336.00
2019-03-26T12:41:46.402Z,2884.00
2019-03-26T12:42:46.414Z,2604.00
2019-03-26T12:43:46.387Z,2432.00
2019-03-26T12:44:46.361Z,2320.00
2019-03-26T12:45:46.382Z,2216.00
2019-03-26T12:46:46.337Z,2148.00
2019-03-26T12:47:46.324Z,2156.00
2019-03-26T12:48:46.316Z,2252.00
2019-03-26T12:49:46.321Z,2384.00
2019-03-26T12:50:46.302Z,2412.00
2019-03-26T12:51:46.305Z,2432.00
2019-03-26T12:52:46.301Z,2500.00
2019-03-26T12:53:46.257Z,2548.00
2019-03-26T12:54:46.276Z,2420.00
2019-03-26T12:55:46.240Z,2296.00
2019-03-26T12:56:46.235Z,2440.00
2019-03-26T12:57:46.219Z,2796.00
2019-03-26T12:58:46.203Z,3216.00
2019-03-26T12:59:46.195Z,3540.00
2019-03-26T13:00:46.247Z,3788.00
2019-03-26T13:01:46.239Z,3888.00
2019-03-26T13:02:46.176Z,3764.00
2019-03-26T13:03:46.159Z,3684.00
2019-03-26T13:04:46.143Z,3608.00
2019-03-26T13:05:46.164Z,3532.00
2019-03-26T13:06:46.117Z,3484.00
2019-03-26T13:07:46.131Z,3624.00
2019-03-26T13:08:46.096Z,3968.00
2019-03-26T13:09:46.089Z,4296.00
2019-03-26T13:10:53.579Z,4488.00
2019-03-26T13:11:47.079Z,4612.00
2019-03-26T13:12:46.084Z,4984.00
2019-03-26T13:13:46.059Z,5424.00
2019-03-26T13:14:46.036Z,5724.00
2019-03-26T13:15:46.022Z,5856.00
2019-03-26T13:16:46.014Z,5392.00
2019-03-26T13:17:46.010Z,4816.00
2019-03-26T13:18:45.986Z,4568.00
2019-03-26T13:19:45.999Z,4536.00
2019-03-26T13:20:45.971Z,4640.00
2019-03-26T13:21:45.984Z,4976.00
2019-03-26T13:22:45.950Z,5260.00
2019-03-26T13:23:45.959Z,5180.00
2019-03-26T13:24:45.942Z,4916.00
2019-03-26T13:25:45.912Z,4692.00
2019-03-26T13:26:48.898Z,4620.00
2019-03-26T13:27:45.891Z,4548.00
2019-03-26T13:28:45.881Z,4376.00
2019-03-26T13:29:45.885Z,4132.00
2019-03-26T13:30:45.871Z,3984.00
2019-03-26T13:31:45.849Z,3808.00
2019-03-26T13:32:45.894Z,3704.00
2019-03-26T13:33:45.853Z,3644.00
2019-03-26T13:34:45.823Z,3784.00
2019-03-26T13:35:45.842Z,4100.00
2019-03-26T13:36:45.804Z,4552.00
2019-03-26T13:37:45.789Z,5004.00
2019-03-26T13:38:45.814Z,5236.00
2019-03-26T13:39:45.777Z,5332.00
2019-03-26T13:40:45.774Z,5264.00
2019-03-26T13:41:45.744Z,5112.00
2019-03-26T13:42:45.726Z,4708.00
2019-03-26T13:43:45.736Z,4172.00
2019-03-26T13:44:45.711Z,3552.00
2019-03-26T13:45:45.716Z,3000.00
2019-03-26T13:46:45.698Z,2508.00
2019-03-26T13:47:45.677Z,2196.00
2019-03-26T13:48:45.691Z,2108.00
2019-03-26T13:49:45.655Z,2104.00
2019-03-26T13:50:45.659Z,2224.00
2019-03-26T13:51:45.629Z,2432.00
2019-03-26T13:52:45.619Z,2620.00
2019-03-26T13:53:45.608Z,2840.00
2019-03-26T13:54:45.625Z,3156.00
2019-03-26T13:55:45.606Z,3532.00
2019-03-26T13:56:45.578Z,3840.00
2019-03-26T13:57:45.580Z,4020.00
2019-03-26T13:58:45.559Z,4204.00
2019-03-26T13:59:48.816Z,4564.00
2019-03-26T14:00:45.563Z,4904.00
2019-03-26T14:01:45.536Z,5096.00
2019-03-26T14:02:45.514Z,5172.00
2019-03-26T14:03:45.501Z,5200.00
2019-03-26T14:04:45.493Z,5116.00
2019-03-26T14:05:45.498Z,5032.00
2019-03-26T14:06:45.475Z,4952.00
2019-03-26T14:07:45.467Z,4900.00
2019-03-26T14:08:45.466Z,4940.00
2019-03-26T14:09:45.476Z,5092.00
2019-03-26T14:10:45.436Z,5292.00
2019-03-26T14:11:45.419Z,5524.00
2019-03-26T14:12:45.405Z,5864.00
2019-03-26T14:13:45.420Z,6224.00
2019-03-26T14:14:45.416Z,6424.00
2019-03-26T14:15:45.371Z,6560.00
2019-03-26T14:16:45.360Z,6380.00
2019-03-26T14:17:45.362Z,5772.00
2019-03-26T14:18:45.349Z,5092.00
2019-03-26T14:19:45.349Z,4660.00
2019-03-26T14:20:45.317Z,4472.00
2019-03-26T14:21:45.312Z,4388.00
2019-03-26T14:22:45.332Z,4296.00
2019-03-26T14:23:45.282Z,4184.00
2019-03-26T14:24:45.274Z,4348.00
2019-03-26T14:25:45.260Z,4896.00
2019-03-26T14:26:45.271Z,5488.00
2019-03-26T14:27:45.254Z,5960.00
2019-03-26T14:28:45.283Z,6348.00
2019-03-26T14:29:45.219Z,6576.00
2019-03-26T14:30:45.213Z,6692.00
2019-03-26T14:31:45.197Z,6704.00
2019-03-26T14:32:45.205Z,6588.00
2019-03-26T14:33:45.179Z,6388.00
2019-03-26T14:34:48.235Z,6296.00
2019-03-26T14:35:46.158Z,6412.00
2019-03-26T14:36:45.175Z,6560.00
2019-03-26T14:37:51.046Z,6524.00
2019-03-26T14:38:46.146Z,6396.00
2019-03-26T14:39:45.109Z,6156.00
2019-03-26T14:40:54.659Z,5864.00
2019-03-26T14:41:46.088Z,5544.00
2019-03-26T14:42:45.084Z,5268.00
2019-03-26T14:43:45.066Z,4912.00
2019-03-26T14:44:45.095Z,4440.00
2019-03-26T14:45:45.056Z,4068.00
2019-03-26T14:46:45.032Z,3824.00
2019-03-26T14:47:45.054Z,3580.00
2019-03-26T14:48:45.015Z,3264.00
2019-03-26T14:49:45.029Z,2940.00
2019-03-26T14:50:45.000Z,2588.00
2019-03-26T14:51:44.981Z,2300.00
2019-03-26T14:52:44.970Z,2124.00
2019-03-26T14:53:44.977Z,2092.00
2019-03-26T14:54:44.951Z,2164.00
2019-03-26T14:55:44.955Z,2172.00
2019-03-26T14:56:44.926Z,2108.00
2019-03-26T14:57:44.930Z,1976.00
2019-03-26T14:58:44.907Z,1720.00
2019-03-26T14:59:44.917Z,1512.00
2019-03-26T15:00:44.892Z,1424.00
2019-03-26T15:01:44.873Z,1384.00
2019-03-26T15:02:44.863Z,1328.00
2019-03-26T15:03:44.865Z,1264.00
2019-03-26T15:04:44.855Z,1200.00
2019-03-26T15:05:44.853Z,1176.00
2019-03-26T15:06:44.814Z,1108.00
2019-03-26T15:07:44.809Z,1004.00
2019-03-26T15:08:44.798Z,924.00
2019-03-26T15:09:44.787Z,856.00
2019-03-26T15:10:44.834Z,824.00
2019-03-26T15:11:44.772Z,812.00
2019-03-26T15:12:44.756Z,816.00
2019-03-26T15:13:44.743Z,820.00
2019-03-26T15:14:44.742Z,828.00
2019-03-26T15:15:44.742Z,820.00
2019-03-26T15:16:44.709Z,816.00
2019-03-26T15:17:44.705Z,808.00
2019-03-26T15:18:44.742Z,792.00
2019-03-26T15:19:44.677Z,808.00
2019-03-26T15:20:44.667Z,848.00
2019-03-26T15:21:44.694Z,892.00
2019-03-26T15:22:44.646Z,920.00
2019-03-26T15:23:44.679Z,944.00
2019-03-26T15:24:44.622Z,992.00
2019-03-26T15:25:44.639Z,1024.00
2019-03-26T15:26:44.598Z,1048.00
2019-03-26T15:27:44.611Z,1068.00
2019-03-26T15:28:44.576Z,1044.00
2019-03-26T15:29:44.603Z,988.00
2019-03-26T15:30:44.562Z,952.00
2019-03-26T15:31:44.550Z,956.00
2019-03-26T15:32:44.600Z,976.00
2019-03-26T15:33:44.520Z,984.00
2019-03-26T15:34:44.518Z,984.00
2019-03-26T15:35:44.508Z,1016.00
2019-03-26T15:36:44.517Z,1064.00
2019-03-26T15:37:44.499Z,1100.00
2019-03-26T15:38:44.491Z,1148.00
2019-03-26T15:39:44.458Z,1216.00
2019-03-26T15:40:44.451Z,1300.00
2019-03-26T15:41:44.462Z,1388.00
2019-03-26T15:42:44.453Z,1472.00
2019-03-26T15:43:44.419Z,1556.00
2019-03-26T15:44:44.412Z,1644.00
2019-03-26T15:45:44.397Z,1716.00
2019-03-26T15:46:44.443Z,1772.00
2019-03-26T15:47:44.401Z,1832.00
2019-03-26T15:48:44.378Z,1880.00
2019-03-26T15:49:44.444Z,1928.00
2019-03-26T15:50:44.346Z,1968.00
2019-03-26T15:51:44.329Z,1988.00
2019-03-26T15:52:44.317Z,2008.00
2019-03-26T15:53:44.325Z,2044.00
2019-03-26T15:54:44.336Z,2088.00
2019-03-26T15:55:44.293Z,2132.00
2019-03-26T15:56:44.305Z,2176.00
2019-03-26T15:57:44.272Z,2208.00
2019-03-26T15:58:51.303Z,2216.00
2019-03-26T15:59:51.282Z,2188.00
2019-03-26T16:00:44.233Z,2128.00
2019-03-26T16:01:51.752Z,2028.00
2019-03-26T16:02:51.312Z,1952.00
2019-03-26T16:03:51.740Z,1912.00
2019-03-26T16:04:44.195Z,1884.00
2019-03-26T16:16:03.967Z,704.00
2019-03-26T16:22:08.577Z,660.00
2019-03-26T16:23:30.275Z,660.00
2019-03-26T16:24:22.730Z,652.00
2019-03-26T16:37:01.633Z,1076.00
2019-03-26T16:51:53.618Z,776.00
2019-03-26T16:53:19.220Z,632.00
2019-03-26T17:06:26.210Z,252.00
2019-03-26T17:13:11.887Z,152.00
2019-03-26T17:15:28.175Z,148.00
2019-03-26T17:18:13.249Z,144.00
2019-03-26T17:36:41.675Z,112.00
2019-03-26T17:38:59.574Z,108.00
2019-03-26T17:43:01.403Z,92.00
2019-03-26T17:49:24.288Z,56.00
2019-03-26T17:50:24.459Z,52.00
2019-03-26T17:52:42.925Z,40.00
2019-03-26T17:59:12.856Z,20.00
2019-03-26T18:00:12.530Z,20.00
2019-03-26T18:07:08.991Z,8.00
2019-03-26T18:18:18.722Z,4.00
2019-03-26T18:20:32.545Z,0.00
2019-03-26T18:21:27.039Z,0.00
2019-03-26T18:22:26.111Z,0.00
2019-03-26T18:27:06.827Z,0.00
2019-03-26T18:32:26.455Z,0.00
2019-03-26T18:36:11.204Z,0.00
2019-03-26T18:50:41.905Z,0.00
2019-03-26T18:52:47.280Z,0.00
2019-03-26T18:53:38.827Z,0.00
2019-03-26T19:01:01.162Z,0.00
2019-03-26T19:02:04.655Z,0.00
2019-03-26T19:04:38.347Z,0.00
2019-03-26T19:15:27.510Z,0.00
2019-03-26T19:16:49.502Z,0.00
2019-03-26T19:22:48.876Z,0.00
2019-03-26T19:25:27.019Z,0.00
2019-03-26T19:29:36.094Z,0.00
2019-03-26T19:37:48.701Z,0.00
2019-03-26T19:38:48.646Z,0.00
2019-03-26T19:40:58.585Z,0.00
2019-03-26T19:44:05.600Z,0.00
2019-03-26T19:48:42.500Z,0.00
2019-03-26T19:54:48.380Z,0.00
2019-03-26T19:55:45.355Z,0.00
2019-03-26T19:56:45.296Z,0.00
2019-03-26T19:57:45.311Z,0.00
2019-03-26T20:01:51.593Z,0.00
2019-03-26T20:04:12.419Z,0.00
2019-03-26T20:10:10.846Z,0.00
2019-03-26T20:11:08.230Z,0.00
2019-03-26T20:12:08.257Z,0.00
2019-03-26T20:14:54.073Z,0.00
2019-03-26T20:18:13.524Z,0.00
2019-03-26T20:23:46.508Z,0.00
2019-03-26T20:24:40.343Z,0.00
2019-03-26T20:28:05.444Z,0.00
2019-03-26T20:29:06.165Z,0.00
2019-03-26T20:30:05.739Z,0.00
2019-03-26T20:31:05.225Z,0.00
2019-03-26T21:07:37.106Z,0.00
2019-03-26T21:08:37.053Z,0.00
2019-03-26T21:35:38.704Z,0.00
2019-03-26T21:36:38.662Z,0.00
2019-03-26T22:11:49.609Z,0.00
2019-03-26T22:30:56.344Z,0.00
2019-03-26T22:31:56.207Z,0.00
2019-03-26T22:32:56.212Z,0.00
2019-03-26T22:33:56.204Z,0.00
2019-03-26T22:34:56.187Z,0.00
2019-03-26T22:35:56.287Z,0.00
2019-03-26T22:36:56.151Z,0.00
2019-03-26T22:37:56.143Z,0.00
2019-03-26T22:38:56.147Z,0.00
2019-03-26T22:39:56.120Z,0.00
2019-03-26T22:40:56.150Z,0.00
2019-03-26T22:41:56.093Z,0.00
2019-03-26T22:42:56.080Z,0.00
2019-03-26T22:43:56.082Z,0.00
2019-03-26T22:44:56.086Z,0.00
2019-03-26T22:45:56.097Z,0.00
2019-03-26T22:46:56.067Z,0.00
2019-03-26T22:47:56.066Z,0.00
2019-03-26T22:48:56.017Z,0.00
2019-03-26T22:49:57.433Z,0.00
2019-03-26T22:50:56.027Z,0.00
2019-03-26T22:51:55.987Z,0.00
2019-03-26T22:52:56.021Z,0.00
2019-03-26T22:53:55.979Z,0.00